Main page
METAR-TAF:

METAR-TAF

Airports :

Wake Island Airfield

Wake Island, United States

latitude: 19-17N, longitude: 166-39E, elevation: 4 m

Current weather observation

The report was made 1 hour and 8 minutes ago, at 00:55 UTC
Wind 14 kt from the Northeast
Temperature 26°C
Humidity 58%
Pressure 1017 hPa
Visibility: 16.1 km
Few clouds at a height of 4100 ft
Overcast at a height of 5500 ft

METAR: PWAK 240055Z AUTO 05014KT 10SM FEW041 OVC055 26/17 A3003 RMK AO2 RAB20E30 SLP175 P0000 T02630165

Time: 14:03 (02:03 UTC)

Forecast

The report was made 4 hours and 3 minutes ago, at 22:00 UTC
Forecast valid from 23 at 22 UTC to 25 at 04 UTC
Wind 15 kt from the East/Northeast
Visibility: 8000 m
Few clouds at a height of 2500 ft
Broken clouds at a height of 5000 ft
haze,

TAF: PWAK 232200Z 2322/2504 06015KT 8000 HZ FEW025 BKN050 QNH3005INS TX26/2408Z TN23/2414Z FOR MIL USE ONLY

Weather observations and forecasts of more than 4000 airports (METAR and TAF reports).

The available stations are represented by yellow and red dots on the map.

Hover mouse over dot to see the name of the station.

Then click to see weather observations and forecasts.

To change the map : click on the green buttons with a black cross to zoom in, on the green button with a dash to zoom out, or on the green arrows for adjacent maps.


METAR-TAF: